sensor_id;sensor_type;location;lat;lon;timestamp;P1;durP1;ratioP1;P2;durP2;ratioP2
27161;SDS011;54464;50.558;9.704;2023-07-31T00:00:30;5.00;;;2.20;;
27161;SDS011;54464;50.558;9.704;2023-07-31T00:02:55;3.83;;;1.93;;
27161;SDS011;54464;50.558;9.704;2023-07-31T00:05:21;4.13;;;1.90;;
27161;SDS011;54464;50.558;9.704;2023-07-31T00:07:47;2.70;;;1.60;;
27161;SDS011;54464;50.558;9.704;2023-07-31T00:10:13;2.73;;;1.60;;
27161;SDS011;54464;50.558;9.704;2023-07-31T00:25:41;4.87;;;2.00;;
27161;SDS011;54464;50.558;9.704;2023-07-31T00:30:50;3.47;;;1.70;;
27161;SDS011;54464;50.558;9.704;2023-07-31T00:33:34;3.53;;;1.80;;
27161;SDS011;54464;50.558;9.704;2023-07-31T00:36:01;4.97;;;1.90;;
27161;SDS011;54464;50.558;9.704;2023-07-31T00:38:27;3.50;;;2.27;;
27161;SDS011;54464;50.558;9.704;2023-07-31T00:40:53;3.43;;;2.00;;
27161;SDS011;54464;50.558;9.704;2023-07-31T00:43:18;3.70;;;2.13;;
27161;SDS011;54464;50.558;9.704;2023-07-31T00:48:15;6.13;;;2.87;;
27161;SDS011;54464;50.558;9.704;2023-07-31T00:50:41;4.20;;;1.90;;
27161;SDS011;54464;50.558;9.704;2023-07-31T00:53:06;4.43;;;2.27;;
27161;SDS011;54464;50.558;9.704;2023-07-31T00:55:32;4.13;;;1.83;;
27161;SDS011;54464;50.558;9.704;2023-07-31T00:57:58;4.97;;;2.17;;
27161;SDS011;54464;50.558;9.704;2023-07-31T01:00:23;6.63;;;2.63;;
27161;SDS011;54464;50.558;9.704;2023-07-31T01:02:49;3.37;;;2.17;;
27161;SDS011;54464;50.558;9.704;2023-07-31T01:05:16;5.37;;;2.60;;
27161;SDS011;54464;50.558;9.704;2023-07-31T01:08:03;5.70;;;2.77;;
27161;SDS011;54464;50.558;9.704;2023-07-31T01:10:46;6.37;;;3.10;;
27161;SDS011;54464;50.558;9.704;2023-07-31T01:13:19;5.57;;;3.10;;
27161;SDS011;54464;50.558;9.704;2023-07-31T01:15:45;4.60;;;2.70;;
27161;SDS011;54464;50.558;9.704;2023-07-31T01:18:10;4.37;;;2.50;;
27161;SDS011;54464;50.558;9.704;2023-07-31T01:20:36;4.03;;;2.80;;
27161;SDS011;54464;50.558;9.704;2023-07-31T01:26:12;4.37;;;2.53;;
27161;SDS011;54464;50.558;9.704;2023-07-31T01:31:26;7.30;;;2.80;;
27161;SDS011;54464;50.558;9.704;2023-07-31T01:33:55;4.17;;;3.00;;
27161;SDS011;54464;50.558;9.704;2023-07-31T01:36:23;5.97;;;3.00;;
27161;SDS011;54464;50.558;9.704;2023-07-31T01:38:49;6.87;;;3.17;;
27161;SDS011;54464;50.558;9.704;2023-07-31T01:41:18;7.37;;;2.90;;
27161;SDS011;54464;50.558;9.704;2023-07-31T01:43:44;5.43;;;2.47;;
27161;SDS011;54464;50.558;9.704;2023-07-31T01:46:10;7.47;;;2.90;;
27161;SDS011;54464;50.558;9.704;2023-07-31T01:48:36;4.40;;;2.67;;
27161;SDS011;54464;50.558;9.704;2023-07-31T01:51:02;5.77;;;3.00;;
27161;SDS011;54464;50.558;9.704;2023-07-31T01:53:28;3.70;;;2.43;;
27161;SDS011;54464;50.558;9.704;2023-07-31T01:55:55;7.03;;;2.60;;
27161;SDS011;54464;50.558;9.704;2023-07-31T01:58:21;3.60;;;2.47;;
27161;SDS011;54464;50.558;9.704;2023-07-31T02:00:47;4.97;;;2.67;;
27161;SDS011;54464;50.558;9.704;2023-07-31T02:03:12;5.87;;;2.67;;
27161;SDS011;54464;50.558;9.704;2023-07-31T02:05:45;7.93;;;2.70;;
27161;SDS011;54464;50.558;9.704;2023-07-31T02:08:14;6.03;;;2.70;;
27161;SDS011;54464;50.558;9.704;2023-07-31T02:10:40;7.37;;;3.10;;
27161;SDS011;54464;50.558;9.704;2023-07-31T02:13:06;5.63;;;3.10;;
27161;SDS011;54464;50.558;9.704;2023-07-31T02:15:31;6.23;;;2.63;;
27161;SDS011;54464;50.558;9.704;2023-07-31T02:17:57;5.60;;;3.00;;
27161;SDS011;54464;50.558;9.704;2023-07-31T02:20:23;3.33;;;2.73;;
27161;SDS011;54464;50.558;9.704;2023-07-31T02:22:49;5.00;;;2.67;;
27161;SDS011;54464;50.558;9.704;2023-07-31T02:25:15;6.73;;;3.20;;
27161;SDS011;54464;50.558;9.704;2023-07-31T02:27:40;6.27;;;3.33;;
27161;SDS011;54464;50.558;9.704;2023-07-31T02:30:06;5.20;;;3.17;;
27161;SDS011;54464;50.558;9.704;2023-07-31T02:32:32;7.27;;;2.80;;
27161;SDS011;54464;50.558;9.704;2023-07-31T02:34:58;5.43;;;2.53;;
27161;SDS011;54464;50.558;9.704;2023-07-31T02:37:24;4.67;;;2.57;;
27161;SDS011;54464;50.558;9.704;2023-07-31T02:39:50;5.83;;;2.87;;
27161;SDS011;54464;50.558;9.704;2023-07-31T02:42:16;8.53;;;2.50;;
27161;SDS011;54464;50.558;9.704;2023-07-31T02:44:41;4.30;;;2.50;;
27161;SDS011;54464;50.558;9.704;2023-07-31T02:47:07;5.03;;;2.17;;
27161;SDS011;54464;50.558;9.704;2023-07-31T02:49:32;3.70;;;2.23;;
27161;SDS011;54464;50.558;9.704;2023-07-31T02:51:58;4.03;;;2.20;;
27161;SDS011;54464;50.558;9.704;2023-07-31T02:54:24;7.67;;;2.73;;
27161;SDS011;54464;50.558;9.704;2023-07-31T02:56:50;5.17;;;2.40;;
27161;SDS011;54464;50.558;9.704;2023-07-31T02:59:16;4.93;;;2.37;;
27161;SDS011;54464;50.558;9.704;2023-07-31T03:01:42;3.33;;;2.60;;
27161;SDS011;54464;50.558;9.704;2023-07-31T03:04:08;5.90;;;2.80;;
27161;SDS011;54464;50.558;9.704;2023-07-31T03:06:34;4.77;;;3.00;;
27161;SDS011;54464;50.558;9.704;2023-07-31T03:08:59;6.13;;;2.90;;
27161;SDS011;54464;50.558;9.704;2023-07-31T03:11:25;4.50;;;2.90;;
27161;SDS011;54464;50.558;9.704;2023-07-31T03:13:51;5.90;;;2.70;;
27161;SDS011;54464;50.558;9.704;2023-07-31T03:16:17;6.83;;;2.90;;
27161;SDS011;54464;50.558;9.704;2023-07-31T03:18:42;4.00;;;2.43;;
27161;SDS011;54464;50.558;9.704;2023-07-31T03:21:08;3.87;;;2.70;;
27161;SDS011;54464;50.558;9.704;2023-07-31T03:23:34;3.83;;;2.60;;
27161;SDS011;54464;50.558;9.704;2023-07-31T03:26:00;4.63;;;2.30;;
27161;SDS011;54464;50.558;9.704;2023-07-31T03:28:28;4.80;;;2.50;;
27161;SDS011;54464;50.558;9.704;2023-07-31T03:30:54;5.53;;;2.60;;
27161;SDS011;54464;50.558;9.704;2023-07-31T03:33:20;4.27;;;2.23;;
27161;SDS011;54464;50.558;9.704;2023-07-31T03:35:45;4.07;;;2.07;;
27161;SDS011;54464;50.558;9.704;2023-07-31T03:38:11;5.70;;;2.40;;
27161;SDS011;54464;50.558;9.704;2023-07-31T03:40:37;5.03;;;2.33;;
27161;SDS011;54464;50.558;9.704;2023-07-31T03:43:02;4.73;;;2.40;;
27161;SDS011;54464;50.558;9.704;2023-07-31T03:45:28;4.03;;;2.27;;
27161;SDS011;54464;50.558;9.704;2023-07-31T03:47:53;5.70;;;2.90;;
27161;SDS011;54464;50.558;9.704;2023-07-31T03:50:19;4.67;;;2.47;;
27161;SDS011;54464;50.558;9.704;2023-07-31T03:52:45;4.83;;;2.40;;
27161;SDS011;54464;50.558;9.704;2023-07-31T03:55:11;5.53;;;2.60;;
27161;SDS011;54464;50.558;9.704;2023-07-31T03:57:37;7.27;;;3.10;;
27161;SDS011;54464;50.558;9.704;2023-07-31T04:00:02;5.40;;;2.90;;
27161;SDS011;54464;50.558;9.704;2023-07-31T04:02:28;5.60;;;3.20;;
27161;SDS011;54464;50.558;9.704;2023-07-31T04:04:54;7.37;;;2.73;;
27161;SDS011;54464;50.558;9.704;2023-07-31T04:07:19;5.87;;;2.97;;
27161;SDS011;54464;50.558;9.704;2023-07-31T04:09:45;6.57;;;2.60;;
27161;SDS011;54464;50.558;9.704;2023-07-31T04:12:11;5.50;;;2.33;;
27161;SDS011;54464;50.558;9.704;2023-07-31T04:14:36;5.10;;;2.60;;
27161;SDS011;54464;50.558;9.704;2023-07-31T04:17:02;5.27;;;2.43;;
27161;SDS011;54464;50.558;9.704;2023-07-31T04:19:28;5.43;;;2.60;;
27161;SDS011;54464;50.558;9.704;2023-07-31T04:21:53;5.07;;;2.73;;
27161;SDS011;54464;50.558;9.704;2023-07-31T04:24:19;4.03;;;2.17;;
27161;SDS011;54464;50.558;9.704;2023-07-31T04:26:49;4.20;;;2.43;;
27161;SDS011;54464;50.558;9.704;2023-07-31T04:29:16;4.17;;;2.23;;
27161;SDS011;54464;50.558;9.704;2023-07-31T04:31:41;5.43;;;2.50;;
27161;SDS011;54464;50.558;9.704;2023-07-31T04:34:07;4.43;;;2.57;;
27161;SDS011;54464;50.558;9.704;2023-07-31T04:36:33;4.63;;;2.50;;
27161;SDS011;54464;50.558;9.704;2023-07-31T04:38:59;4.40;;;2.60;;
27161;SDS011;54464;50.558;9.704;2023-07-31T04:41:25;3.80;;;2.00;;
27161;SDS011;54464;50.558;9.704;2023-07-31T04:43:51;4.13;;;2.27;;
27161;SDS011;54464;50.558;9.704;2023-07-31T04:46:17;3.37;;;2.10;;
27161;SDS011;54464;50.558;9.704;2023-07-31T04:48:42;3.97;;;2.37;;
27161;SDS011;54464;50.558;9.704;2023-07-31T04:51:08;5.73;;;2.10;;
27161;SDS011;54464;50.558;9.704;2023-07-31T04:53:37;5.93;;;2.57;;
27161;SDS011;54464;50.558;9.704;2023-07-31T04:56:02;6.03;;;2.30;;
27161;SDS011;54464;50.558;9.704;2023-07-31T04:58:28;5.60;;;2.40;;
27161;SDS011;54464;50.558;9.704;2023-07-31T05:00:54;4.27;;;2.50;;
27161;SDS011;54464;50.558;9.704;2023-07-31T05:03:19;4.00;;;2.60;;
27161;SDS011;54464;50.558;9.704;2023-07-31T05:05:45;8.00;;;3.00;;
27161;SDS011;54464;50.558;9.704;2023-07-31T05:08:11;4.13;;;2.47;;
27161;SDS011;54464;50.558;9.704;2023-07-31T05:10:36;4.53;;;2.50;;
27161;SDS011;54464;50.558;9.704;2023-07-31T05:13:02;4.43;;;2.43;;
27161;SDS011;54464;50.558;9.704;2023-07-31T05:15:28;3.70;;;2.20;;
27161;SDS011;54464;50.558;9.704;2023-07-31T05:17:54;4.73;;;2.57;;
27161;SDS011;54464;50.558;9.704;2023-07-31T05:20:20;4.13;;;2.50;;
27161;SDS011;54464;50.558;9.704;2023-07-31T05:22:46;5.17;;;2.30;;
27161;SDS011;54464;50.558;9.704;2023-07-31T05:25:11;7.20;;;2.80;;
27161;SDS011;54464;50.558;9.704;2023-07-31T05:27:37;6.97;;;2.70;;
27161;SDS011;54464;50.558;9.704;2023-07-31T05:30:03;6.70;;;3.10;;
27161;SDS011;54464;50.558;9.704;2023-07-31T05:32:29;7.67;;;2.77;;
27161;SDS011;54464;50.558;9.704;2023-07-31T05:34:55;4.50;;;2.40;;
27161;SDS011;54464;50.558;9.704;2023-07-31T05:37:23;5.40;;;2.83;;
27161;SDS011;54464;50.558;9.704;2023-07-31T05:39:51;5.10;;;2.60;;
27161;SDS011;54464;50.558;9.704;2023-07-31T05:42:17;5.20;;;2.73;;
27161;SDS011;54464;50.558;9.704;2023-07-31T05:44:42;5.07;;;2.67;;
27161;SDS011;54464;50.558;9.704;2023-07-31T05:47:08;3.67;;;2.70;;
27161;SDS011;54464;50.558;9.704;2023-07-31T05:49:34;5.30;;;2.60;;
27161;SDS011;54464;50.558;9.704;2023-07-31T05:52:00;4.37;;;2.87;;
27161;SDS011;54464;50.558;9.704;2023-07-31T05:54:26;4.77;;;2.80;;
27161;SDS011;54464;50.558;9.704;2023-07-31T05:56:51;6.20;;;2.87;;
27161;SDS011;54464;50.558;9.704;2023-07-31T05:59:17;5.97;;;2.73;;
27161;SDS011;54464;50.558;9.704;2023-07-31T06:01:43;5.73;;;2.80;;
27161;SDS011;54464;50.558;9.704;2023-07-31T06:04:08;6.33;;;2.80;;
27161;SDS011;54464;50.558;9.704;2023-07-31T06:06:34;6.07;;;2.60;;
27161;SDS011;54464;50.558;9.704;2023-07-31T06:09:00;6.13;;;2.90;;
27161;SDS011;54464;50.558;9.704;2023-07-31T06:11:25;4.23;;;2.53;;
27161;SDS011;54464;50.558;9.704;2023-07-31T06:13:51;5.80;;;2.67;;
27161;SDS011;54464;50.558;9.704;2023-07-31T06:16:17;7.17;;;3.10;;
27161;SDS011;54464;50.558;9.704;2023-07-31T06:18:42;5.30;;;2.80;;
27161;SDS011;54464;50.558;9.704;2023-07-31T06:21:11;6.77;;;2.90;;
27161;SDS011;54464;50.558;9.704;2023-07-31T06:23:36;5.47;;;2.40;;
27161;SDS011;54464;50.558;9.704;2023-07-31T06:26:02;4.67;;;2.70;;
27161;SDS011;54464;50.558;9.704;2023-07-31T06:28:28;6.10;;;3.13;;
27161;SDS011;54464;50.558;9.704;2023-07-31T06:30:57;4.33;;;2.70;;
27161;SDS011;54464;50.558;9.704;2023-07-31T06:33:23;6.93;;;2.70;;
27161;SDS011;54464;50.558;9.704;2023-07-31T06:35:49;3.73;;;2.37;;
27161;SDS011;54464;50.558;9.704;2023-07-31T06:38:15;6.67;;;2.97;;
27161;SDS011;54464;50.558;9.704;2023-07-31T06:40:41;5.27;;;2.53;;
27161;SDS011;54464;50.558;9.704;2023-07-31T06:43:06;5.57;;;2.90;;
27161;SDS011;54464;50.558;9.704;2023-07-31T06:45:36;7.70;;;3.00;;
27161;SDS011;54464;50.558;9.704;2023-07-31T06:48:03;6.00;;;2.40;;
27161;SDS011;54464;50.558;9.704;2023-07-31T06:50:29;5.40;;;2.43;;
27161;SDS011;54464;50.558;9.704;2023-07-31T06:52:55;8.63;;;2.80;;
27161;SDS011;54464;50.558;9.704;2023-07-31T06:55:21;4.87;;;2.50;;
27161;SDS011;54464;50.558;9.704;2023-07-31T06:57:48;5.83;;;2.73;;
27161;SDS011;54464;50.558;9.704;2023-07-31T07:00:15;6.43;;;2.50;;
27161;SDS011;54464;50.558;9.704;2023-07-31T07:02:41;6.80;;;2.77;;
27161;SDS011;54464;50.558;9.704;2023-07-31T07:05:07;5.70;;;2.60;;
27161;SDS011;54464;50.558;9.704;2023-07-31T07:07:34;5.63;;;3.00;;
27161;SDS011;54464;50.558;9.704;2023-07-31T07:10:00;7.30;;;3.30;;
27161;SDS011;54464;50.558;9.704;2023-07-31T07:12:27;8.77;;;3.80;;
27161;SDS011;54464;50.558;9.704;2023-07-31T07:14:54;9.03;;;3.40;;
27161;SDS011;54464;50.558;9.704;2023-07-31T07:17:20;10.27;;;3.43;;
27161;SDS011;54464;50.558;9.704;2023-07-31T07:19:47;5.33;;;3.10;;
27161;SDS011;54464;50.558;9.704;2023-07-31T07:22:13;6.20;;;2.90;;
27161;SDS011;54464;50.558;9.704;2023-07-31T07:24:39;6.73;;;3.67;;
27161;SDS011;54464;50.558;9.704;2023-07-31T07:27:04;6.33;;;2.93;;
27161;SDS011;54464;50.558;9.704;2023-07-31T07:29:30;8.13;;;2.80;;
27161;SDS011;54464;50.558;9.704;2023-07-31T07:31:56;6.43;;;3.10;;
27161;SDS011;54464;50.558;9.704;2023-07-31T07:34:27;6.37;;;3.23;;
27161;SDS011;54464;50.558;9.704;2023-07-31T07:36:53;7.07;;;2.60;;
27161;SDS011;54464;50.558;9.704;2023-07-31T07:39:19;4.93;;;2.90;;
27161;SDS011;54464;50.558;9.704;2023-07-31T07:41:45;5.43;;;2.77;;
27161;SDS011;54464;50.558;9.704;2023-07-31T07:44:11;5.27;;;2.87;;
27161;SDS011;54464;50.558;9.704;2023-07-31T07:46:37;4.40;;;2.77;;
27161;SDS011;54464;50.558;9.704;2023-07-31T07:49:03;6.43;;;2.83;;
27161;SDS011;54464;50.558;9.704;2023-07-31T07:51:28;5.83;;;2.83;;
27161;SDS011;54464;50.558;9.704;2023-07-31T07:53:55;7.47;;;2.77;;
27161;SDS011;54464;50.558;9.704;2023-07-31T07:56:21;4.60;;;2.93;;
27161;SDS011;54464;50.558;9.704;2023-07-31T07:58:50;8.63;;;2.83;;
27161;SDS011;54464;50.558;9.704;2023-07-31T08:01:16;5.50;;;2.77;;
27161;SDS011;54464;50.558;9.704;2023-07-31T08:03:41;6.03;;;2.90;;
27161;SDS011;54464;50.558;9.704;2023-07-31T08:06:07;5.67;;;3.10;;
27161;SDS011;54464;50.558;9.704;2023-07-31T08:08:34;6.17;;;3.10;;
27161;SDS011;54464;50.558;9.704;2023-07-31T08:11:00;5.37;;;2.60;;
27161;SDS011;54464;50.558;9.704;2023-07-31T08:13:26;6.00;;;3.50;;
27161;SDS011;54464;50.558;9.704;2023-07-31T08:15:51;6.17;;;2.80;;
27161;SDS011;54464;50.558;9.704;2023-07-31T08:18:17;6.13;;;2.80;;
27161;SDS011;54464;50.558;9.704;2023-07-31T08:20:43;5.80;;;2.80;;
27161;SDS011;54464;50.558;9.704;2023-07-31T08:23:08;6.07;;;3.03;;
27161;SDS011;54464;50.558;9.704;2023-07-31T08:25:37;7.37;;;3.13;;
27161;SDS011;54464;50.558;9.704;2023-07-31T08:28:03;6.30;;;2.90;;
27161;SDS011;54464;50.558;9.704;2023-07-31T08:30:29;6.43;;;2.90;;
27161;SDS011;54464;50.558;9.704;2023-07-31T08:32:55;4.37;;;2.80;;
27161;SDS011;54464;50.558;9.704;2023-07-31T08:35:21;7.33;;;3.47;;
27161;SDS011;54464;50.558;9.704;2023-07-31T08:37:47;4.37;;;2.90;;
27161;SDS011;54464;50.558;9.704;2023-07-31T08:40:12;5.77;;;2.83;;
27161;SDS011;54464;50.558;9.704;2023-07-31T08:42:45;5.07;;;2.60;;
27161;SDS011;54464;50.558;9.704;2023-07-31T08:45:15;8.40;;;3.40;;
27161;SDS011;54464;50.558;9.704;2023-07-31T08:47:44;7.87;;;3.17;;
27161;SDS011;54464;50.558;9.704;2023-07-31T08:50:15;6.17;;;2.93;;
27161;SDS011;54464;50.558;9.704;2023-07-31T08:52:46;7.33;;;3.67;;
27161;SDS011;54464;50.558;9.704;2023-07-31T08:55:12;6.03;;;3.10;;
27161;SDS011;54464;50.558;9.704;2023-07-31T08:57:38;7.30;;;3.10;;
27161;SDS011;54464;50.558;9.704;2023-07-31T09:00:05;7.67;;;3.43;;
27161;SDS011;54464;50.558;9.704;2023-07-31T09:02:41;7.63;;;3.43;;
27161;SDS011;54464;50.558;9.704;2023-07-31T09:05:30;6.77;;;3.13;;
27161;SDS011;54464;50.558;9.704;2023-07-31T09:07:56;6.93;;;3.33;;
27161;SDS011;54464;50.558;9.704;2023-07-31T09:10:22;5.57;;;3.30;;
27161;SDS011;54464;50.558;9.704;2023-07-31T09:12:49;7.67;;;3.30;;
27161;SDS011;54464;50.558;9.704;2023-07-31T09:15:16;5.47;;;3.27;;
27161;SDS011;54464;50.558;9.704;2023-07-31T09:17:42;6.57;;;3.23;;
27161;SDS011;54464;50.558;9.704;2023-07-31T09:20:18;6.03;;;3.00;;
27161;SDS011;54464;50.558;9.704;2023-07-31T09:22:45;5.57;;;3.23;;
27161;SDS011;54464;50.558;9.704;2023-07-31T09:25:15;6.40;;;3.00;;
27161;SDS011;54464;50.558;9.704;2023-07-31T09:27:52;6.33;;;2.97;;
27161;SDS011;54464;50.558;9.704;2023-07-31T09:30:25;6.00;;;3.10;;
27161;SDS011;54464;50.558;9.704;2023-07-31T09:32:59;5.40;;;3.07;;
27161;SDS011;54464;50.558;9.704;2023-07-31T09:35:32;5.00;;;2.97;;
27161;SDS011;54464;50.558;9.704;2023-07-31T09:38:00;5.43;;;2.93;;
27161;SDS011;54464;50.558;9.704;2023-07-31T09:40:30;6.23;;;3.00;;
27161;SDS011;54464;50.558;9.704;2023-07-31T09:43:13;5.93;;;3.23;;
27161;SDS011;54464;50.558;9.704;2023-07-31T09:45:42;7.77;;;3.30;;
27161;SDS011;54464;50.558;9.704;2023-07-31T09:48:10;6.27;;;3.20;;
27161;SDS011;54464;50.558;9.704;2023-07-31T09:50:38;6.50;;;2.87;;
27161;SDS011;54464;50.558;9.704;2023-07-31T09:53:06;5.23;;;2.80;;
27161;SDS011;54464;50.558;9.704;2023-07-31T09:55:33;6.50;;;2.77;;
27161;SDS011;54464;50.558;9.704;2023-07-31T09:57:59;4.33;;;2.80;;
27161;SDS011;54464;50.558;9.704;2023-07-31T10:00:29;4.20;;;2.70;;
27161;SDS011;54464;50.558;9.704;2023-07-31T10:02:56;5.40;;;3.20;;
27161;SDS011;54464;50.558;9.704;2023-07-31T10:05:24;4.87;;;2.83;;
27161;SDS011;54464;50.558;9.704;2023-07-31T10:08:07;7.47;;;3.90;;
27161;SDS011;54464;50.558;9.704;2023-07-31T10:10:35;6.07;;;3.90;;
27161;SDS011;54464;50.558;9.704;2023-07-31T10:13:02;7.53;;;3.33;;
27161;SDS011;54464;50.558;9.704;2023-07-31T10:15:29;4.43;;;3.20;;
27161;SDS011;54464;50.558;9.704;2023-07-31T10:17:55;6.70;;;3.20;;
27161;SDS011;54464;50.558;9.704;2023-07-31T10:20:21;5.90;;;3.00;;
27161;SDS011;54464;50.558;9.704;2023-07-31T10:22:47;6.97;;;3.10;;
27161;SDS011;54464;50.558;9.704;2023-07-31T10:25:14;6.77;;;3.53;;
27161;SDS011;54464;50.558;9.704;2023-07-31T10:27:40;7.37;;;3.43;;
27161;SDS011;54464;50.558;9.704;2023-07-31T10:30:11;4.80;;;3.37;;
27161;SDS011;54464;50.558;9.704;2023-07-31T10:32:39;6.83;;;3.83;;
27161;SDS011;54464;50.558;9.704;2023-07-31T10:35:06;7.13;;;4.10;;
27161;SDS011;54464;50.558;9.704;2023-07-31T10:37:37;7.83;;;3.90;;
27161;SDS011;54464;50.558;9.704;2023-07-31T10:40:09;6.70;;;3.90;;
27161;SDS011;54464;50.558;9.704;2023-07-31T10:42:45;6.07;;;3.73;;
27161;SDS011;54464;50.558;9.704;2023-07-31T10:45:14;7.53;;;3.47;;
27161;SDS011;54464;50.558;9.704;2023-07-31T10:47:51;7.37;;;3.47;;
27161;SDS011;54464;50.558;9.704;2023-07-31T10:50:27;6.30;;;3.20;;
27161;SDS011;54464;50.558;9.704;2023-07-31T10:52:54;5.53;;;3.30;;
27161;SDS011;54464;50.558;9.704;2023-07-31T10:55:28;6.63;;;3.50;;
27161;SDS011;54464;50.558;9.704;2023-07-31T10:58:05;6.90;;;3.90;;
27161;SDS011;54464;50.558;9.704;2023-07-31T11:00:39;5.53;;;3.90;;
27161;SDS011;54464;50.558;9.704;2023-07-31T11:03:10;8.60;;;3.70;;
27161;SDS011;54464;50.558;9.704;2023-07-31T11:05:41;6.03;;;3.30;;
27161;SDS011;54464;50.558;9.704;2023-07-31T11:08:28;7.57;;;3.50;;
27161;SDS011;54464;50.558;9.704;2023-07-31T11:13:26;5.60;;;3.47;;
27161;SDS011;54464;50.558;9.704;2023-07-31T11:15:52;5.40;;;3.20;;
27161;SDS011;54464;50.558;9.704;2023-07-31T11:18:17;6.33;;;3.33;;
27161;SDS011;54464;50.558;9.704;2023-07-31T11:20:43;8.57;;;3.53;;
27161;SDS011;54464;50.558;9.704;2023-07-31T11:23:09;7.37;;;3.60;;
27161;SDS011;54464;50.558;9.704;2023-07-31T11:25:36;5.70;;;3.33;;
27161;SDS011;54464;50.558;9.704;2023-07-31T11:28:06;5.70;;;3.27;;
27161;SDS011;54464;50.558;9.704;2023-07-31T11:30:37;6.53;;;3.90;;
27161;SDS011;54464;50.558;9.704;2023-07-31T11:33:04;5.90;;;3.37;;
27161;SDS011;54464;50.558;9.704;2023-07-31T11:35:33;6.33;;;3.67;;
27161;SDS011;54464;50.558;9.704;2023-07-31T11:38:10;6.63;;;3.30;;
27161;SDS011;54464;50.558;9.704;2023-07-31T11:40:43;7.40;;;3.50;;
27161;SDS011;54464;50.558;9.704;2023-07-31T11:43:09;7.00;;;3.30;;
27161;SDS011;54464;50.558;9.704;2023-07-31T11:45:38;8.23;;;3.90;;
27161;SDS011;54464;50.558;9.704;2023-07-31T11:48:05;6.77;;;3.40;;
27161;SDS011;54464;50.558;9.704;2023-07-31T11:50:33;6.47;;;3.40;;
27161;SDS011;54464;50.558;9.704;2023-07-31T11:53:01;6.57;;;3.60;;
27161;SDS011;54464;50.558;9.704;2023-07-31T11:55:32;5.57;;;3.63;;
27161;SDS011;54464;50.558;9.704;2023-07-31T11:57:58;6.57;;;3.90;;
27161;SDS011;54464;50.558;9.704;2023-07-31T12:00:25;7.30;;;3.60;;
27161;SDS011;54464;50.558;9.704;2023-07-31T12:02:52;7.00;;;3.80;;
27161;SDS011;54464;50.558;9.704;2023-07-31T12:05:18;9.03;;;3.77;;
27161;SDS011;54464;50.558;9.704;2023-07-31T12:07:47;6.77;;;3.70;;
27161;SDS011;54464;50.558;9.704;2023-07-31T12:10:26;9.07;;;4.07;;
27161;SDS011;54464;50.558;9.704;2023-07-31T12:12:57;8.60;;;4.00;;
27161;SDS011;54464;50.558;9.704;2023-07-31T12:15:29;6.97;;;3.43;;
27161;SDS011;54464;50.558;9.704;2023-07-31T12:17:56;6.73;;;4.00;;
27161;SDS011;54464;50.558;9.704;2023-07-31T12:20:22;5.67;;;3.90;;
27161;SDS011;54464;50.558;9.704;2023-07-31T12:22:47;6.53;;;3.67;;
27161;SDS011;54464;50.558;9.704;2023-07-31T12:25:15;7.17;;;3.50;;
27161;SDS011;54464;50.558;9.704;2023-07-31T12:27:44;7.17;;;4.40;;
27161;SDS011;54464;50.558;9.704;2023-07-31T12:30:29;5.63;;;3.20;;
27161;SDS011;54464;50.558;9.704;2023-07-31T12:32:57;7.37;;;3.93;;
27161;SDS011;54464;50.558;9.704;2023-07-31T12:35:22;7.73;;;3.67;;
27161;SDS011;54464;50.558;9.704;2023-07-31T12:37:48;5.57;;;3.60;;
27161;SDS011;54464;50.558;9.704;2023-07-31T12:40:14;6.20;;;3.27;;
27161;SDS011;54464;50.558;9.704;2023-07-31T12:42:40;7.20;;;3.53;;
27161;SDS011;54464;50.558;9.704;2023-07-31T12:45:06;6.60;;;3.23;;
27161;SDS011;54464;50.558;9.704;2023-07-31T12:47:32;5.77;;;3.60;;
27161;SDS011;54464;50.558;9.704;2023-07-31T12:49:58;6.70;;;3.10;;
27161;SDS011;54464;50.558;9.704;2023-07-31T12:52:23;7.20;;;3.63;;
27161;SDS011;54464;50.558;9.704;2023-07-31T12:54:49;7.07;;;3.70;;
27161;SDS011;54464;50.558;9.704;2023-07-31T12:57:14;7.43;;;3.60;;
27161;SDS011;54464;50.558;9.704;2023-07-31T12:59:40;5.20;;;2.97;;
27161;SDS011;54464;50.558;9.704;2023-07-31T13:02:06;4.97;;;3.30;;
27161;SDS011;54464;50.558;9.704;2023-07-31T13:04:31;5.77;;;3.00;;
27161;SDS011;54464;50.558;9.704;2023-07-31T13:06:57;7.17;;;3.57;;
27161;SDS011;54464;50.558;9.704;2023-07-31T13:09:23;7.43;;;3.57;;
27161;SDS011;54464;50.558;9.704;2023-07-31T13:11:48;4.50;;;3.27;;
27161;SDS011;54464;50.558;9.704;2023-07-31T13:14:14;4.97;;;3.10;;
27161;SDS011;54464;50.558;9.704;2023-07-31T13:16:39;7.50;;;3.13;;
27161;SDS011;54464;50.558;9.704;2023-07-31T13:19:05;6.30;;;3.23;;
27161;SDS011;54464;50.558;9.704;2023-07-31T13:21:30;6.10;;;3.17;;
27161;SDS011;54464;50.558;9.704;2023-07-31T13:23:56;5.30;;;3.67;;
27161;SDS011;54464;50.558;9.704;2023-07-31T13:26:23;5.13;;;3.10;;
27161;SDS011;54464;50.558;9.704;2023-07-31T13:28:48;5.90;;;3.30;;
27161;SDS011;54464;50.558;9.704;2023-07-31T13:31:14;7.97;;;3.30;;
27161;SDS011;54464;50.558;9.704;2023-07-31T13:33:39;7.07;;;3.30;;
27161;SDS011;54464;50.558;9.704;2023-07-31T13:36:05;8.40;;;3.67;;
27161;SDS011;54464;50.558;9.704;2023-07-31T13:38:30;6.73;;;3.50;;
27161;SDS011;54464;50.558;9.704;2023-07-31T13:40:56;5.70;;;3.07;;
27161;SDS011;54464;50.558;9.704;2023-07-31T13:43:22;5.50;;;2.87;;
27161;SDS011;54464;50.558;9.704;2023-07-31T13:45:47;6.00;;;3.30;;
27161;SDS011;54464;50.558;9.704;2023-07-31T13:48:13;7.70;;;3.40;;
27161;SDS011;54464;50.558;9.704;2023-07-31T13:50:38;6.03;;;3.20;;
27161;SDS011;54464;50.558;9.704;2023-07-31T13:53:04;4.20;;;2.90;;
27161;SDS011;54464;50.558;9.704;2023-07-31T13:55:29;5.33;;;3.10;;
27161;SDS011;54464;50.558;9.704;2023-07-31T13:57:55;6.10;;;2.90;;
27161;SDS011;54464;50.558;9.704;2023-07-31T14:00:20;4.67;;;3.10;;
27161;SDS011;54464;50.558;9.704;2023-07-31T14:02:46;5.73;;;3.33;;
27161;SDS011;54464;50.558;9.704;2023-07-31T14:05:11;5.17;;;3.30;;
27161;SDS011;54464;50.558;9.704;2023-07-31T14:07:37;4.50;;;2.83;;
27161;SDS011;54464;50.558;9.704;2023-07-31T14:10:02;6.10;;;3.27;;
27161;SDS011;54464;50.558;9.704;2023-07-31T14:12:29;4.33;;;3.10;;
27161;SDS011;54464;50.558;9.704;2023-07-31T14:14:55;5.40;;;2.77;;
27161;SDS011;54464;50.558;9.704;2023-07-31T14:17:23;5.27;;;3.10;;
27161;SDS011;54464;50.558;9.704;2023-07-31T14:19:48;8.23;;;3.40;;
27161;SDS011;54464;50.558;9.704;2023-07-31T14:22:15;7.40;;;3.10;;
27161;SDS011;54464;50.558;9.704;2023-07-31T14:24:51;4.37;;;2.57;;
27161;SDS011;54464;50.558;9.704;2023-07-31T14:27:17;6.90;;;3.10;;
27161;SDS011;54464;50.558;9.704;2023-07-31T14:29:42;5.13;;;2.60;;
27161;SDS011;54464;50.558;9.704;2023-07-31T14:32:08;5.63;;;3.00;;
27161;SDS011;54464;50.558;9.704;2023-07-31T14:34:33;3.93;;;3.00;;
27161;SDS011;54464;50.558;9.704;2023-07-31T14:36:59;4.80;;;2.80;;
27161;SDS011;54464;50.558;9.704;2023-07-31T14:39:24;6.40;;;2.83;;
27161;SDS011;54464;50.558;9.704;2023-07-31T14:41:50;5.67;;;2.80;;
27161;SDS011;54464;50.558;9.704;2023-07-31T14:44:15;4.73;;;2.87;;
27161;SDS011;54464;50.558;9.704;2023-07-31T14:46:41;6.03;;;3.30;;
27161;SDS011;54464;50.558;9.704;2023-07-31T14:49:07;5.03;;;2.90;;
27161;SDS011;54464;50.558;9.704;2023-07-31T14:51:32;7.83;;;3.10;;
27161;SDS011;54464;50.558;9.704;2023-07-31T14:53:58;5.07;;;3.20;;
27161;SDS011;54464;50.558;9.704;2023-07-31T14:56:23;4.80;;;2.83;;
27161;SDS011;54464;50.558;9.704;2023-07-31T14:58:49;5.67;;;2.87;;
27161;SDS011;54464;50.558;9.704;2023-07-31T15:01:14;5.67;;;3.10;;
27161;SDS011;54464;50.558;9.704;2023-07-31T15:03:40;4.87;;;2.93;;
27161;SDS011;54464;50.558;9.704;2023-07-31T15:06:05;5.10;;;3.17;;
27161;SDS011;54464;50.558;9.704;2023-07-31T15:08:32;6.13;;;2.97;;
27161;SDS011;54464;50.558;9.704;2023-07-31T15:10:58;5.07;;;2.80;;
27161;SDS011;54464;50.558;9.704;2023-07-31T15:13:24;5.40;;;3.20;;